Time;durP1;ratioP1;P1;durP2;ratioP2;P2;SDS_P1;SDS_P2;PMS_P1;PMS_P2;Temp;Humidity;BMP_temperature;BMP_pressure;BME280_temperature;BME280_humidity;BME280_pressure;Samples;Min_cycle;Max_cycle;Signal;HPM_P1;HPM_P2
2021/01/11 05:59:31;;;;;;;14.80;10.40;;;-2.90;44.00;;;;;;4903425;29;20167;-91
2021/01/11 06:02:30;;;;;;;14.30;8.73;;;-3.40;43.10;;;;;;4903710;29;20247;-91
2021/01/11 06:04:56;;;;;;;14.35;8.95;;;-2.90;44.20;;;;;;4886312;29;20274;-91
2021/01/11 06:07:22;;;;;;;15.40;10.30;;;-3.60;42.90;;;;;;4887169;29;20243;-93
2021/01/11 06:09:50;;;;;;;18.98;11.77;;;-3.20;42.90;;;;;;4886825;29;20666;-92
2021/01/11 06:12:16;;;;;;;19.38;13.45;;;-2.90;43.50;;;;;;4887071;29;20312;-94
2021/01/11 06:14:48;;;;;;;25.27;12.90;;;-2.90;42.50;;;;;;4886249;29;20175;-94
2021/01/11 06:17:14;;;;;;;16.40;12.88;;;-3.60;42.70;;;;;;4887304;29;20190;-94
2021/01/11 06:20:29;;;;;;;16.33;13.93;;;-3.10;43.50;;;;;;4888278;29;20168;-92
2021/01/11 06:22:57;;;;;;;18.77;12.10;;;-3.20;43.20;;;;;;4889331;29;20160;-92
2021/01/11 06:25:28;;;;;;;14.02;11.15;;;-3.10;43.40;;;;;;4886671;29;20211;-92
2021/01/11 06:31:35;;;;;;;18.52;14.90;;;-3.10;43.20;;;;;;4902584;29;20208;-91
2021/01/11 06:34:01;;;;;;;13.05;10.68;;;-3.10;43.00;;;;;;4885782;29;20171;-91
2021/01/11 06:36:55;;;;;;;16.40;10.97;;;-3.20;42.50;;;;;;4886049;29;20220;-92
2021/01/11 06:39:34;;;;;;;16.65;11.13;;;-3.20;43.00;;;;;;4885725;29;20431;-92
2021/01/11 06:42:11;;;;;;;13.73;9.60;;;-3.20;42.40;;;;;;4885218;29;20627;-92
2021/01/11 06:44:41;;;;;;;16.83;9.57;;;-3.80;44.10;;;;;;4884829;29;20168;-92
2021/01/11 06:47:31;;;;;;;14.40;7.75;;;-4.50;45.30;;;;;;4885413;29;20160;-93
2021/01/11 06:50:06;;;;;;;20.08;11.20;;;-4.60;47.00;;;;;;4887408;29;20231;-92
2021/01/11 06:52:47;;;;;;;18.00;12.25;;;-4.80;47.60;;;;;;4886229;29;20159;-92
2021/01/11 06:55:22;;;;;;;12.52;10.30;;;-4.80;48.90;;;;;;4886594;29;20229;-93
2021/01/11 06:57:51;;;;;;;17.73;11.65;;;-5.10;47.70;;;;;;4887485;29;20223;-93
2021/01/11 07:00:29;;;;;;;19.35;14.13;;;-4.30;47.20;;;;;;4887329;29;20420;-93
2021/01/11 07:02:55;;;;;;;17.55;13.77;;;-4.10;46.40;;;;;;4894375;29;20175;-93
2021/01/11 07:05:47;;;;;;;17.60;11.13;;;-4.40;47.70;;;;;;4893188;29;20196;-94
2021/01/11 07:08:19;;;;;;;17.58;10.95;;;-4.30;47.90;;;;;;4892690;29;20412;-93
2021/01/11 07:11:09;;;;;;;23.15;12.85;;;-3.90;46.80;;;;;;4892674;29;20183;-93
2021/01/11 07:14:00;;;;;;;25.20;15.95;;;-3.80;46.70;;;;;;4891761;29;20231;-93
2021/01/11 07:16:47;;;;;;;20.50;14.23;;;-4.20;45.20;;;;;;4893194;29;20159;-92
2021/01/11 07:19:21;;;;;;;18.90;13.45;;;-3.70;43.80;;;;;;4893248;29;20187;-92
2021/01/11 07:21:47;;;;;;;12.43;9.60;;;-3.60;44.40;;;;;;4892357;29;20311;-92
2021/01/11 07:24:19;;;;;;;13.10;10.05;;;-3.90;42.70;;;;;;4892391;29;20175;-92
2021/01/11 07:26:48;;;;;;;14.77;9.95;;;-4.00;42.30;;;;;;4897675;29;20209;-94
2021/01/11 07:29:14;;;;;;;19.20;12.85;;;-3.40;42.30;;;;;;4895265;29;20239;-95
2021/01/11 07:31:42;;;;;;;11.88;10.48;;;-3.90;42.60;;;;;;4894232;29;20168;-95
2021/01/11 07:34:16;;;;;;;15.18;11.90;;;-3.70;42.20;;;;;;4896311;29;20171;-92
2021/01/11 07:36:54;;;;;;;18.83;12.02;;;-3.00;43.10;;;;;;4912175;29;20191;-93
2021/01/11 07:39:29;;;;;;;21.85;13.02;;;-3.80;44.10;;;;;;4912857;29;20167;-94
2021/01/11 07:41:59;;;;;;;21.65;15.23;;;-3.40;44.10;;;;;;4915461;29;20174;-95
2021/01/11 07:44:39;;;;;;;24.02;14.43;;;-2.90;42.90;;;;;;4916464;29;20266;-92
2021/01/11 07:47:04;;;;;;;23.45;14.00;;;-3.50;42.20;;;;;;4915954;29;20601;-94
2021/01/11 07:49:33;;;;;;;20.53;13.30;;;-4.00;42.00;;;;;;4899800;29;20172;-93
2021/01/11 07:52:09;;;;;;;23.15;14.93;;;-3.30;43.00;;;;;;4878468;29;20180;-93
2021/01/11 07:54:37;;;;;;;19.25;12.57;;;-3.40;43.30;;;;;;4879382;29;20427;-94
2021/01/11 07:57:15;;;;;;;17.70;12.70;;;-3.10;42.50;;;;;;4879837;29;20634;-92
2021/01/11 08:12:41;;;;;;;21.65;14.82;;;-2.60;43.30;;;;;;4912429;28;20238;-93
2021/01/11 08:15:07;;;;;;;17.23;12.35;;;-3.00;42.50;;;;;;4899833;29;20163;-94
2021/01/11 08:17:40;;;;;;;19.88;12.95;;;-2.50;42.90;;;;;;4895647;29;20258;-94
2021/01/11 08:20:06;;;;;;;17.98;12.50;;;-2.60;42.90;;;;;;4879726;29;20172;-93
2021/01/11 08:22:34;;;;;;;17.85;11.65;;;-2.00;43.20;;;;;;4887819;29;20624;-93
2021/01/11 08:25:00;;;;;;;18.90;11.88;;;-2.50;43.00;;;;;;4901141;29;20247;-93
2021/01/11 08:27:57;;;;;;;19.48;13.02;;;-2.90;41.80;;;;;;4890955;29;20163;-93
2021/01/11 08:30:24;;;;;;;18.77;12.45;;;-2.40;43.00;;;;;;4902527;29;20208;-95
2021/01/11 08:32:53;;;;;;;16.73;14.38;;;-2.50;43.30;;;;;;4890914;29;20176;-94
2021/01/11 08:35:22;;;;;;;18.95;13.45;;;-2.40;43.70;;;;;;4882451;29;20173;-95
2021/01/11 08:38:31;;;;;;;23.85;15.15;;;-2.40;44.20;;;;;;4889985;29;20168;-95
2021/01/11 08:41:15;;;;;;;23.05;14.80;;;-2.50;44.10;;;;;;4900004;29;20156;-93
2021/01/11 08:43:42;;;;;;;20.85;13.68;;;-2.10;44.10;;;;;;4901744;29;20203;-93
2021/01/11 08:46:24;;;;;;;19.63;14.23;;;-2.30;43.70;;;;;;4897017;29;20195;-94
2021/01/11 08:49:06;;;;;;;18.83;13.27;;;-1.70;43.20;;;;;;4902673;29;20545;-93
2021/01/11 08:51:32;;;;;;;18.80;13.20;;;-1.70;42.90;;;;;;4940036;23;20236;-94
2021/01/11 08:53:58;;;;;;;17.38;13.68;;;-1.50;43.30;;;;;;5086072;23;20201;-94
2021/01/11 08:56:42;;;;;;;22.70;17.00;;;-0.80;43.50;;;;;;4909629;29;20219;-93
2021/01/11 09:06:59;;;;;;;22.17;15.10;;;-1.40;44.00;;;;;;4949064;28;20241;-93
2021/01/11 09:09:28;;;;;;;21.58;14.05;;;-1.40;42.70;;;;;;4933701;29;20198;-93
2021/01/11 09:22:37;;;;;;;16.92;12.85;;;-1.00;43.90;;;;;;4911103;29;20257;-90
2021/01/11 09:25:09;;;;;;;19.08;14.50;;;-1.00;43.10;;;;;;4875707;29;20208;-94
2021/01/11 09:27:39;;;;;;;20.50;15.38;;;-0.70;43.10;;;;;;4894132;29;20449;-91
2021/01/11 09:30:07;;;;;;;19.88;14.10;;;-0.60;43.80;;;;;;4895611;29;20183;-89
2021/01/11 09:32:33;;;;;;;19.48;15.00;;;-0.30;43.30;;;;;;4885701;29;20267;-87
2021/01/11 09:34:59;;;;;;;19.88;15.07;;;-0.70;43.00;;;;;;4875216;29;20240;-88
2021/01/11 09:37:31;;;;;;;24.23;13.97;;;-0.70;42.20;;;;;;4887539;29;20180;-88
2021/01/11 09:39:56;;;;;;;21.05;15.40;;;0.10;42.60;;;;;;4872271;29;20485;-88
2021/01/11 09:42:22;;;;;;;22.08;17.35;;;0.50;42.00;;;;;;4879961;29;20432;-88
2021/01/11 09:44:48;;;;;;;21.83;17.87;;;0.60;41.80;;;;;;4889519;29;20199;-87
2021/01/11 09:47:15;;;;;;;22.13;14.80;;;0.40;40.10;;;;;;4895428;29;20424;-86
2021/01/11 09:49:41;;;;;;;21.48;16.95;;;0.60;41.30;;;;;;4878294;29;20442;-87
2021/01/11 09:52:45;;;;;;;21.80;16.37;;;0.60;40.80;;;;;;4877103;29;20557;-93
2021/01/11 09:55:22;;;;;;;18.65;15.05;;;0.50;41.80;;;;;;4886743;29;20172;-88
2021/01/11 09:57:48;;;;;;;17.90;13.93;;;-0.20;42.40;;;;;;4877012;29;20266;-86
2021/01/11 10:00:45;;;;;;;20.90;15.13;;;0.40;43.10;;;;;;4889957;29;20192;-87
2021/01/11 10:03:15;;;;;;;22.92;15.50;;;0.60;42.70;;;;;;4913237;29;20229;-91
2021/01/11 10:05:44;;;;;;;19.35;14.10;;;0.20;41.40;;;;;;4902285;29;20260;-89
2021/01/11 10:08:10;;;;;;;18.95;14.75;;;0.30;42.00;;;;;;4886845;29;20271;-90
2021/01/11 10:10:39;;;;;;;26.23;16.48;;;0.60;41.40;;;;;;4877328;29;20195;-90
2021/01/11 10:13:06;;;;;;;24.98;15.98;;;0.70;41.30;;;;;;4882104;29;20164;-88
2021/01/11 10:30:41;;;;;;;19.38;16.23;;;1.00;42.20;;;;;;4967562;28;20755;-89
2021/01/11 10:33:08;;;;;;;21.70;16.67;;;0.70;43.20;;;;;;4941350;29;20170;-91
2021/01/11 10:35:40;;;;;;;25.15;17.42;;;0.50;43.30;;;;;;4950307;28;20178;-89
2021/01/11 10:38:06;;;;;;;22.85;18.02;;;0.50;43.40;;;;;;4941176;29;20205;-90
2021/01/11 11:03:54;;;;;;;19.90;14.88;;;1.90;40.90;;;;;;4943413;28;20212;-91
2021/01/11 11:06:22;;;;;;;21.90;15.60;;;2.60;40.40;;;;;;4926760;29;20586;-89
2021/01/11 11:09:06;;;;;;;18.38;16.38;;;2.50;38.40;;;;;;4938917;29;20157;-89
2021/01/11 11:11:32;;;;;;;27.83;16.05;;;2.30;39.30;;;;;;4926687;29;20210;-90
2021/01/11 11:14:02;;;;;;;19.00;16.90;;;2.60;38.50;;;;;;4926286;29;20288;-90
2021/01/11 11:16:28;;;;;;;22.52;15.10;;;3.00;39.10;;;;;;4922257;29;20167;-89
2021/01/11 11:19:13;;;;;;;22.23;15.30;;;3.10;37.80;;;;;;4921300;29;20222;-90
2021/01/11 11:21:42;;;;;;;16.58;13.18;;;3.50;37.90;;;;;;4924917;29;20595;-89
2021/01/11 11:24:42;;;;;;;18.50;14.18;;;3.20;37.10;;;;;;4914411;29;20170;-90
2021/01/11 11:27:08;;;;;;;15.25;12.15;;;3.40;36.20;;;;;;4906077;29;20205;-90
2021/01/11 11:29:36;;;;;;;15.30;12.50;;;3.20;34.40;;;;;;4905713;29;20614;-90
2021/01/11 11:32:03;;;;;;;16.30;12.80;;;3.80;34.70;;;;;;4908488;29;20411;-90
2021/01/11 11:34:30;;;;;;;19.17;14.63;;;3.60;34.20;;;;;;4922668;29;20174;-91
2021/01/11 11:36:56;;;;;;;17.05;12.60;;;3.80;35.10;;;;;;4905940;29;20223;-91
2021/01/11 11:39:35;;;;;;;15.75;13.05;;;4.10;35.40;;;;;;4922818;29;20175;-91
2021/01/11 11:42:01;;;;;;;17.38;12.48;;;4.10;35.00;;;;;;4905096;29;20198;-89
2021/01/11 11:44:28;;;;;;;17.80;14.45;;;3.30;34.80;;;;;;4909180;29;20588;-92
2021/01/11 11:46:54;;;;;;;18.00;14.00;;;4.10;35.30;;;;;;4923727;29;20241;-92
2021/01/11 11:49:22;;;;;;;21.80;15.53;;;3.60;34.50;;;;;;4924807;29;20182;-89
2021/01/11 11:51:48;;;;;;;18.05;14.10;;;3.20;35.00;;;;;;4925192;29;20544;-90
2021/01/11 11:54:16;;;;;;;19.10;13.90;;;3.30;35.00;;;;;;4924831;29;20174;-91
2021/01/11 11:56:59;;;;;;;19.30;14.73;;;3.00;35.60;;;;;;4925462;29;20190;-91
2021/01/11 11:59:26;;;;;;;20.17;12.88;;;3.00;36.30;;;;;;4920918;29;20234;-90
2021/01/11 12:01:55;;;;;;;18.10;13.53;;;3.40;35.90;;;;;;4923824;29;20672;-90
2021/01/11 12:04:20;;;;;;;18.80;14.50;;;3.40;35.10;;;;;;4924146;29;20441;-91
2021/01/11 12:06:46;;;;;;;18.97;14.43;;;3.10;36.20;;;;;;4923978;29;20202;-90
2021/01/11 12:09:12;;;;;;;20.40;14.37;;;2.60;35.60;;;;;;4924721;29;20174;-91
2021/01/11 12:11:49;;;;;;;23.13;14.37;;;1.80;36.20;;;;;;4924145;29;20919;-91
2021/01/11 12:14:16;;;;;;;17.00;13.05;;;2.40;37.90;;;;;;4924667;29;20166;-91
2021/01/11 12:16:46;;;;;;;14.82;13.20;;;1.60;37.50;;;;;;4916737;29;20181;-90
2021/01/11 12:19:12;;;;;;;19.23;13.88;;;2.80;38.30;;;;;;4910449;29;20541;-90
2021/01/11 12:21:47;;;;;;;19.00;13.63;;;2.70;37.00;;;;;;4924144;29;20169;-89
2021/01/11 12:24:13;;;;;;;17.45;13.45;;;3.20;36.80;;;;;;4921725;29;20422;-88
2021/01/11 12:27:01;;;;;;;16.80;12.60;;;3.30;35.40;;;;;;4921729;29;20299;-88
2021/01/11 12:29:27;;;;;;;17.33;12.52;;;3.00;35.50;;;;;;4922905;29;20792;-89
2021/01/11 12:31:57;;;;;;;17.20;12.33;;;3.00;35.70;;;;;;4922150;29;20205;-88
2021/01/11 12:34:23;;;;;;;15.48;12.73;;;3.30;36.10;;;;;;4921454;29;20408;-92
2021/01/11 12:36:50;;;;;;;12.60;11.10;;;3.50;35.60;;;;;;4921662;29;20171;-93
2021/01/11 12:39:16;;;;;;;18.40;13.85;;;3.70;35.60;;;;;;4921985;29;20250;-92
2021/01/11 12:41:49;;;;;;;13.47;12.07;;;3.60;35.30;;;;;;4904589;29;20191;-91
2021/01/11 12:44:15;;;;;;;13.63;11.43;;;3.70;35.00;;;;;;4905336;29;20415;-92
2021/01/11 12:47:03;;;;;;;16.13;12.07;;;4.30;34.20;;;;;;4904715;29;20230;-89
2021/01/11 12:49:30;;;;;;;22.02;13.75;;;4.10;33.70;;;;;;4907563;29;20262;-90
2021/01/11 12:52:00;;;;;;;16.40;11.75;;;4.30;33.30;;;;;;4913592;29;20181;-91
2021/01/11 12:54:26;;;;;;;16.48;14.18;;;4.10;32.40;;;;;;4920671;29;20173;-90
2021/01/11 12:56:53;;;;;;;15.90;11.80;;;4.00;33.30;;;;;;4916755;29;20223;-91
2021/01/11 12:59:24;;;;;;;17.10;12.60;;;4.40;33.40;;;;;;4926356;29;20182;-91
2021/01/11 13:01:53;;;;;;;15.82;12.52;;;4.60;33.00;;;;;;4935358;29;20171;-92
2021/01/11 13:04:24;;;;;;;15.88;12.70;;;4.80;32.60;;;;;;4922629;29;20274;-91
2021/01/11 13:06:57;;;;;;;12.75;10.93;;;4.90;31.40;;;;;;4911871;29;20205;-92
2021/01/11 13:09:23;;;;;;;14.25;11.27;;;4.80;31.80;;;;;;4919224;29;20191;-94
2021/01/11 13:12:00;;;;;;;19.95;13.23;;;5.30;32.10;;;;;;4915069;29;20179;-91
2021/01/11 13:14:26;;;;;;;14.65;12.10;;;5.30;31.40;;;;;;4909517;29;20171;-92
2021/01/11 13:17:02;;;;;;;15.25;12.55;;;5.20;30.60;;;;;;4924582;29;20202;-91
2021/01/11 13:19:28;;;;;;;13.55;12.02;;;5.20;30.90;;;;;;4907131;29;20185;-91
2021/01/11 13:25:51;;;;;;;18.88;14.48;;;5.30;30.50;;;;;;4933350;29;20433;-91
2021/01/11 13:28:17;;;;;;;17.27;12.68;;;5.00;30.00;;;;;;4890721;29;20236;-92
2021/01/11 13:30:44;;;;;;;15.20;13.30;;;5.20;30.60;;;;;;4905834;29;20207;-93
2021/01/11 13:33:10;;;;;;;16.33;13.23;;;5.10;30.90;;;;;;4917923;29;20423;-92
2021/01/11 13:35:42;;;;;;;14.13;12.60;;;5.00;31.00;;;;;;4924536;29;20226;-91
2021/01/11 13:38:08;;;;;;;17.13;13.68;;;4.60;30.10;;;;;;4893588;29;20172;-91
2021/01/11 13:41:08;;;;;;;17.03;13.43;;;5.40;30.00;;;;;;4889403;29;20179;-92
2021/01/11 13:43:34;;;;;;;15.15;13.13;;;5.40;30.20;;;;;;4905514;29;20168;-93
2021/01/11 13:46:02;;;;;;;14.00;12.07;;;5.50;29.70;;;;;;4902337;29;20680;-91
2021/01/11 13:48:28;;;;;;;16.42;12.95;;;4.90;29.40;;;;;;4908204;29;20183;-92
2021/01/11 13:50:54;;;;;;;16.00;11.37;;;5.60;29.10;;;;;;4907438;29;20188;-92
2021/01/11 13:53:20;;;;;;;16.92;14.15;;;6.30;29.50;;;;;;4907784;29;20486;-93
2021/01/11 14:02:31;;;;;;;14.18;11.80;;;5.80;29.40;;;;;;4935436;29;20233;-96
2021/01/11 14:08:20;;;;;;;16.48;11.13;;;5.40;30.00;;;;;;4945673;29;20178;-96
2021/01/11 14:14:09;;;;;;;17.45;13.88;;;5.30;30.10;;;;;;4947467;29;20225;-92
2021/01/11 14:16:35;;;;;;;15.65;13.18;;;5.20;29.90;;;;;;4927176;29;20175;-92
2021/01/11 14:19:05;;;;;;;18.58;13.13;;;5.30;30.00;;;;;;4908739;29;20550;-91
2021/01/11 14:21:32;;;;;;;19.90;15.13;;;5.40;30.00;;;;;;4911486;29;20231;-91
2021/01/11 14:24:00;;;;;;;14.27;11.80;;;5.30;30.00;;;;;;4926638;29;20178;-92
2021/01/11 14:26:42;;;;;;;15.10;12.90;;;5.70;30.80;;;;;;4922920;29;20215;-93
2021/01/11 14:29:09;;;;;;;15.30;13.00;;;5.40;30.30;;;;;;4906886;29;20614;-90
2021/01/11 14:31:54;;;;;;;14.45;11.98;;;4.80;30.10;;;;;;4909943;29;20167;-93
2021/01/11 14:34:25;;;;;;;16.92;13.20;;;5.60;31.00;;;;;;4929258;29;20700;-90
2021/01/11 14:37:01;;;;;;;16.25;13.20;;;5.30;31.20;;;;;;4926181;29;20632;-92
2021/01/11 14:39:27;;;;;;;18.35;13.52;;;4.40;30.80;;;;;;4911866;29;20549;-93
2021/01/11 14:42:08;;;;;;;17.83;13.40;;;4.70;31.50;;;;;;4910534;29;20194;-92
2021/01/11 14:44:35;;;;;;;16.85;14.20;;;4.50;32.30;;;;;;4910283;29;20205;-93
2021/01/11 14:47:13;;;;;;;16.35;13.93;;;4.10;32.60;;;;;;4912496;29;20545;-92
2021/01/11 14:49:41;;;;;;;17.48;14.18;;;3.90;33.60;;;;;;4909859;29;20174;-92
2021/01/11 14:52:55;;;;;;;17.27;14.05;;;3.70;33.60;;;;;;4909782;29;20182;-93
2021/01/11 14:55:21;;;;;;;20.02;14.88;;;3.90;34.40;;;;;;4910167;29;20146;-92
2021/01/11 14:58:13;;;;;;;18.30;13.80;;;3.30;33.00;;;;;;4911072;29;20167;-92
2021/01/11 15:00:41;;;;;;;18.40;15.40;;;4.00;33.90;;;;;;4928738;29;20629;-92
2021/01/11 15:03:19;;;;;;;16.58;14.07;;;4.20;32.80;;;;;;4927595;29;20289;-91
2021/01/11 15:05:46;;;;;;;17.58;15.50;;;3.90;32.80;;;;;;4927118;29;20213;-91
2021/01/11 15:08:30;;;;;;;17.25;14.48;;;4.30;32.60;;;;;;4928221;29;20163;-91
2021/01/11 15:10:55;;;;;;;19.52;15.05;;;4.30;32.80;;;;;;4929655;29;20155;-91
2021/01/11 15:13:21;;;;;;;16.40;13.40;;;4.30;32.60;;;;;;4927809;29;20166;-92
2021/01/11 15:15:54;;;;;;;20.97;16.80;;;4.50;32.30;;;;;;4924001;29;20207;-93
2021/01/11 15:18:20;;;;;;;22.55;18.30;;;4.40;32.60;;;;;;4905262;29;20176;-91
2021/01/11 15:24:08;;;;;;;17.30;13.68;;;4.70;32.80;;;;;;4909965;29;20174;-92
2021/01/11 15:26:38;;;;;;;16.35;13.77;;;4.70;31.90;;;;;;4910057;29;20250;-93
2021/01/11 15:29:10;;;;;;;15.95;12.93;;;4.40;31.80;;;;;;4909085;29;20223;-93
2021/01/11 15:32:21;;;;;;;17.85;13.88;;;4.80;32.00;;;;;;4911603;29;20274;-92
2021/01/11 15:34:47;;;;;;;19.30;14.35;;;4.70;32.00;;;;;;4908666;29;20673;-93
2021/01/11 15:37:13;;;;;;;18.23;13.63;;;4.70;31.90;;;;;;4908008;29;20200;-93
2021/01/11 15:39:42;;;;;;;21.10;14.90;;;4.60;32.50;;;;;;4908080;29;20427;-91
2021/01/11 15:42:08;;;;;;;19.05;15.35;;;5.20;32.90;;;;;;4908936;29;20407;-92
2021/01/11 15:44:42;;;;;;;19.43;16.73;;;4.80;32.70;;;;;;4909726;29;20147;-93
2021/01/11 15:47:07;;;;;;;18.92;14.77;;;4.70;32.70;;;;;;4909601;29;20466;-90
2021/01/11 15:49:56;;;;;;;21.03;13.57;;;4.60;33.40;;;;;;4907851;29;20164;-91
2021/01/11 15:52:21;;;;;;;19.27;15.45;;;4.40;33.30;;;;;;4907317;29;20436;-94
2021/01/11 15:58:39;;;;;;;17.08;15.23;;;4.50;33.30;;;;;;4905060;29;20391;-91
2021/01/11 16:01:05;;;;;;;18.48;13.88;;;4.50;33.30;;;;;;4905154;29;20687;-93
2021/01/11 16:03:41;;;;;;;17.30;14.00;;;4.70;33.00;;;;;;4922033;29;20179;-95
2021/01/11 16:06:13;;;;;;;17.70;14.75;;;4.60;33.20;;;;;;4908443;29;20210;-93
2021/01/11 16:12:01;;;;;;;17.48;14.80;;;4.70;33.30;;;;;;4924986;29;20279;-94
2021/01/11 16:17:52;;;;;;;21.20;14.43;;;4.60;33.20;;;;;;4923674;29;20145;-94
2021/01/11 16:23:40;;;;;;;19.65;14.13;;;4.60;33.40;;;;;;4924621;29;20629;-95
2021/01/11 16:29:28;;;;;;;19.08;14.27;;;4.80;33.80;;;;;;4927419;29;20207;-94
2021/01/11 16:35:16;;;;;;;20.80;13.70;;;4.70;33.90;;;;;;4926156;29;20530;-92
2021/01/11 16:38:29;;;;;;;17.47;12.70;;;4.40;33.20;;;;;;4910861;29;20231;-94
2021/01/11 16:40:54;;;;;;;18.58;14.77;;;4.50;33.70;;;;;;4910301;29;20174;-94
2021/01/11 16:43:20;;;;;;;18.83;14.63;;;4.40;33.20;;;;;;4910907;29;20254;-93
2021/01/11 16:49:18;;;;;;;17.73;15.02;;;4.40;33.40;;;;;;4926554;29;20386;-94
2021/01/11 16:58:52;;;;;;;18.52;13.45;;;4.60;33.20;;;;;;4925652;29;20158;-93
2021/01/11 17:01:18;;;;;;;17.60;14.80;;;4.70;33.50;;;;;;4909253;29;20219;-92
2021/01/11 17:03:44;;;;;;;17.23;13.73;;;4.60;33.40;;;;;;4910080;29;20167;-93
2021/01/11 17:09:31;;;;;;;19.83;16.38;;;4.70;33.40;;;;;;4938200;29;20405;-92
2021/01/11 17:12:16;;;;;;;18.77;15.57;;;4.70;33.30;;;;;;4928736;28;20536;-94
2021/01/11 17:14:42;;;;;;;21.25;16.80;;;5.10;33.70;;;;;;4928695;29;20174;-94
2021/01/11 17:20:44;;;;;;;20.27;17.33;;;4.50;33.00;;;;;;4943178;29;20173;-93
2021/01/11 17:23:09;;;;;;;21.35;16.27;;;4.50;33.90;;;;;;4929067;29;20174;-95
2021/01/11 17:25:47;;;;;;;20.80;15.00;;;4.80;34.60;;;;;;4928350;29;20208;-93
2021/01/11 17:32:07;;;;;;;16.48;13.55;;;3.90;34.30;;;;;;4947358;29;20237;-94
2021/01/11 17:37:54;;;;;;;20.17;15.50;;;4.30;34.60;;;;;;4925418;29;20207;-95
2021/01/11 17:40:58;;;;;;;22.50;16.47;;;4.80;34.20;;;;;;4929805;29;20179;-95
2021/01/11 17:43:27;;;;;;;19.85;15.27;;;4.10;34.40;;;;;;4930146;29;20171;-96
2021/01/11 17:49:15;;;;;;;20.73;17.52;;;4.30;34.30;;;;;;4927781;29;20191;-96
2021/01/11 17:55:04;;;;;;;28.73;20.58;;;4.30;34.50;;;;;;4946259;29;20173;-95
2021/01/11 18:00:53;;;;;;;26.10;19.27;;;4.50;34.80;;;;;;4944187;29;20257;-96
2021/01/11 18:11:06;;;;;;;22.63;16.90;;;4.80;35.40;;;;;;4944940;29;20566;-96
2021/01/11 18:17:08;;;;;;;20.15;16.60;;;4.20;34.90;;;;;;4947102;29;20169;-95
2021/01/11 18:23:02;;;;;;;23.27;17.58;;;4.10;35.80;;;;;;4953463;29;20178;-96
2021/01/11 18:26:11;;;;;;;22.63;17.52;;;4.60;36.60;;;;;;4919953;29;20214;-95
2021/01/11 18:28:37;;;;;;;22.13;16.52;;;4.60;36.70;;;;;;4926825;29;20635;-95
2021/01/11 18:31:03;;;;;;;24.83;16.42;;;4.20;36.10;;;;;;4925275;29;20193;-94
2021/01/11 18:36:55;;;;;;;20.92;17.42;;;4.40;36.60;;;;;;4945769;29;20386;-95
2021/01/11 18:42:50;;;;;;;19.63;15.45;;;4.10;36.80;;;;;;4945357;29;20378;-95
2021/01/11 18:48:47;;;;;;;22.13;14.75;;;4.60;37.60;;;;;;4923713;29;20222;-94
2021/01/11 18:54:35;;;;;;;22.42;16.00;;;4.40;37.40;;;;;;4925271;29;20207;-95
2021/01/11 21:58:00;;;;;;;26.05;18.30;;;2.00;43.40;;;;;;4896299;29;20235;-90
